sensor_id;sensor_type;location;lat;lon;timestamp;P1;durP1;ratioP1;P2;durP2;ratioP2
52186;SDS011;38161;53.020;6.598;2022-07-03T00:03:57;3.50;;;1.95;;
52186;SDS011;38161;53.020;6.598;2022-07-03T00:06:24;3.47;;;1.95;;
52186;SDS011;38161;53.020;6.598;2022-07-03T00:08:51;3.97;;;2.40;;
52186;SDS011;38161;53.020;6.598;2022-07-03T00:11:17;6.75;;;2.30;;
52186;SDS011;38161;53.020;6.598;2022-07-03T00:13:43;2.88;;;2.25;;
52186;SDS011;38161;53.020;6.598;2022-07-03T00:16:09;2.63;;;2.00;;
52186;SDS011;38161;53.020;6.598;2022-07-03T00:18:34;5.68;;;2.40;;
52186;SDS011;38161;53.020;6.598;2022-07-03T00:21:04;2.53;;;2.03;;
52186;SDS011;38161;53.020;6.598;2022-07-03T00:23:44;6.50;;;2.72;;
52186;SDS011;38161;53.020;6.598;2022-07-03T00:26:19;2.75;;;2.00;;
52186;SDS011;38161;53.020;6.598;2022-07-03T00:28:46;3.08;;;2.30;;
52186;SDS011;38161;53.020;6.598;2022-07-03T00:33:38;3.92;;;2.05;;
52186;SDS011;38161;53.020;6.598;2022-07-03T00:36:06;4.45;;;2.47;;
52186;SDS011;38161;53.020;6.598;2022-07-03T00:38:32;3.50;;;2.45;;
52186;SDS011;38161;53.020;6.598;2022-07-03T00:40:58;3.35;;;2.25;;
52186;SDS011;38161;53.020;6.598;2022-07-03T00:43:26;2.88;;;2.22;;
52186;SDS011;38161;53.020;6.598;2022-07-03T00:45:51;3.20;;;2.17;;
52186;SDS011;38161;53.020;6.598;2022-07-03T00:48:19;4.85;;;2.20;;
52186;SDS011;38161;53.020;6.598;2022-07-03T00:50:46;3.53;;;2.42;;
52186;SDS011;38161;53.020;6.598;2022-07-03T00:53:13;5.63;;;2.85;;
52186;SDS011;38161;53.020;6.598;2022-07-03T00:55:48;5.00;;;2.40;;
52186;SDS011;38161;53.020;6.598;2022-07-03T00:58:16;3.58;;;2.47;;
52186;SDS011;38161;53.020;6.598;2022-07-03T01:00:43;5.25;;;2.40;;
52186;SDS011;38161;53.020;6.598;2022-07-03T01:03:17;4.07;;;2.63;;
52186;SDS011;38161;53.020;6.598;2022-07-03T01:05:45;3.45;;;2.38;;
52186;SDS011;38161;53.020;6.598;2022-07-03T01:11:21;2.95;;;2.35;;
52186;SDS011;38161;53.020;6.598;2022-07-03T01:16:33;4.57;;;2.40;;
52186;SDS011;38161;53.020;6.598;2022-07-03T01:25:08;3.53;;;2.42;;
52186;SDS011;38161;53.020;6.598;2022-07-03T01:28:08;4.10;;;2.38;;
52186;SDS011;38161;53.020;6.598;2022-07-03T01:30:48;3.20;;;2.50;;
52186;SDS011;38161;53.020;6.598;2022-07-03T01:33:16;3.70;;;2.58;;
52186;SDS011;38161;53.020;6.598;2022-07-03T01:38:34;3.67;;;2.70;;
52186;SDS011;38161;53.020;6.598;2022-07-03T01:41:02;3.65;;;2.70;;
52186;SDS011;38161;53.020;6.598;2022-07-03T01:43:32;2.83;;;2.45;;
52186;SDS011;38161;53.020;6.598;2022-07-03T01:46:03;3.45;;;2.63;;
52186;SDS011;38161;53.020;6.598;2022-07-03T01:48:30;3.95;;;2.63;;
52186;SDS011;38161;53.020;6.598;2022-07-03T01:50:58;3.03;;;2.30;;
52186;SDS011;38161;53.020;6.598;2022-07-03T01:53:27;4.53;;;2.85;;
52186;SDS011;38161;53.020;6.598;2022-07-03T01:56:01;3.63;;;2.80;;
52186;SDS011;38161;53.020;6.598;2022-07-03T01:58:27;5.63;;;2.58;;
52186;SDS011;38161;53.020;6.598;2022-07-03T02:03:51;3.60;;;2.60;;
52186;SDS011;38161;53.020;6.598;2022-07-03T02:06:49;3.13;;;2.55;;
52186;SDS011;38161;53.020;6.598;2022-07-03T02:09:55;4.93;;;3.35;;
52186;SDS011;38161;53.020;6.598;2022-07-03T02:15:16;4.20;;;2.85;;
52186;SDS011;38161;53.020;6.598;2022-07-03T02:17:44;6.38;;;2.97;;
52186;SDS011;38161;53.020;6.598;2022-07-03T02:20:12;3.17;;;2.67;;
52186;SDS011;38161;53.020;6.598;2022-07-03T02:22:44;8.23;;;3.00;;
52186;SDS011;38161;53.020;6.598;2022-07-03T02:25:22;3.97;;;2.95;;
52186;SDS011;38161;53.020;6.598;2022-07-03T02:27:54;6.32;;;3.20;;
52186;SDS011;38161;53.020;6.598;2022-07-03T02:30:25;7.10;;;2.97;;
52186;SDS011;38161;53.020;6.598;2022-07-03T02:32:53;7.65;;;3.35;;
52186;SDS011;38161;53.020;6.598;2022-07-03T02:35:26;7.07;;;3.58;;
52186;SDS011;38161;53.020;6.598;2022-07-03T02:38:04;6.40;;;4.13;;
52186;SDS011;38161;53.020;6.598;2022-07-03T02:40:39;5.65;;;3.53;;
52186;SDS011;38161;53.020;6.598;2022-07-03T02:46:04;4.13;;;3.47;;
52186;SDS011;38161;53.020;6.598;2022-07-03T02:49:41;4.43;;;2.95;;
52186;SDS011;38161;53.020;6.598;2022-07-03T02:54:32;13.93;;;4.15;;
52186;SDS011;38161;53.020;6.598;2022-07-03T02:57:11;4.68;;;3.17;;
52186;SDS011;38161;53.020;6.598;2022-07-03T02:59:56;5.18;;;3.30;;
52186;SDS011;38161;53.020;6.598;2022-07-03T03:02:38;7.70;;;3.80;;
52186;SDS011;38161;53.020;6.598;2022-07-03T03:05:16;5.88;;;3.75;;
52186;SDS011;38161;53.020;6.598;2022-07-03T03:07:52;4.45;;;3.50;;
52186;SDS011;38161;53.020;6.598;2022-07-03T03:10:37;6.38;;;3.85;;
52186;SDS011;38161;53.020;6.598;2022-07-03T03:13:06;6.40;;;3.60;;
52186;SDS011;38161;53.020;6.598;2022-07-03T03:15:37;6.13;;;4.00;;
52186;SDS011;38161;53.020;6.598;2022-07-03T03:18:08;6.05;;;4.47;;
52186;SDS011;38161;53.020;6.598;2022-07-03T03:20:37;4.85;;;3.88;;
52186;SDS011;38161;53.020;6.598;2022-07-03T03:23:21;4.90;;;3.72;;
52186;SDS011;38161;53.020;6.598;2022-07-03T03:25:52;5.47;;;3.92;;
52186;SDS011;38161;53.020;6.598;2022-07-03T03:28:18;4.85;;;3.75;;
52186;SDS011;38161;53.020;6.598;2022-07-03T03:30:44;6.43;;;3.90;;
52186;SDS011;38161;53.020;6.598;2022-07-03T03:33:10;6.50;;;4.05;;
52186;SDS011;38161;53.020;6.598;2022-07-03T03:38:03;4.63;;;3.80;;
52186;SDS011;38161;53.020;6.598;2022-07-03T03:42:56;6.28;;;3.83;;
52186;SDS011;38161;53.020;6.598;2022-07-03T03:45:22;5.90;;;4.18;;
52186;SDS011;38161;53.020;6.598;2022-07-03T03:47:48;4.95;;;3.92;;
52186;SDS011;38161;53.020;6.598;2022-07-03T03:50:13;4.85;;;3.65;;
52186;SDS011;38161;53.020;6.598;2022-07-03T03:52:39;4.72;;;3.83;;
52186;SDS011;38161;53.020;6.598;2022-07-03T03:57:34;5.07;;;3.53;;
52186;SDS011;38161;53.020;6.598;2022-07-03T04:00:00;5.47;;;3.60;;
52186;SDS011;38161;53.020;6.598;2022-07-03T04:02:26;5.20;;;3.58;;
52186;SDS011;38161;53.020;6.598;2022-07-03T04:04:52;5.68;;;3.60;;
52186;SDS011;38161;53.020;6.598;2022-07-03T04:07:18;6.10;;;3.75;;
52186;SDS011;38161;53.020;6.598;2022-07-03T04:09:44;5.38;;;4.05;;
52186;SDS011;38161;53.020;6.598;2022-07-03T04:12:10;5.68;;;4.20;;
52186;SDS011;38161;53.020;6.598;2022-07-03T04:14:36;5.43;;;3.53;;
52186;SDS011;38161;53.020;6.598;2022-07-03T04:17:02;5.55;;;4.15;;
52186;SDS011;38161;53.020;6.598;2022-07-03T04:19:28;7.07;;;4.07;;
52186;SDS011;38161;53.020;6.598;2022-07-03T04:21:54;4.80;;;3.78;;
52186;SDS011;38161;53.020;6.598;2022-07-03T04:24:20;4.68;;;3.78;;
52186;SDS011;38161;53.020;6.598;2022-07-03T04:26:45;4.47;;;3.42;;
52186;SDS011;38161;53.020;6.598;2022-07-03T04:29:12;5.53;;;3.88;;
52186;SDS011;38161;53.020;6.598;2022-07-03T04:31:38;7.15;;;3.92;;
52186;SDS011;38161;53.020;6.598;2022-07-03T04:34:03;6.78;;;4.15;;
52186;SDS011;38161;53.020;6.598;2022-07-03T04:36:29;6.18;;;4.20;;
52186;SDS011;38161;53.020;6.598;2022-07-03T04:38:55;5.97;;;3.78;;
52186;SDS011;38161;53.020;6.598;2022-07-03T04:41:21;4.97;;;3.63;;
52186;SDS011;38161;53.020;6.598;2022-07-03T04:43:47;5.63;;;4.50;;
52186;SDS011;38161;53.020;6.598;2022-07-03T04:46:12;4.32;;;3.70;;
52186;SDS011;38161;53.020;6.598;2022-07-03T04:48:38;5.20;;;4.00;;
52186;SDS011;38161;53.020;6.598;2022-07-03T04:51:04;4.63;;;3.78;;
52186;SDS011;38161;53.020;6.598;2022-07-03T04:53:30;5.25;;;4.00;;
52186;SDS011;38161;53.020;6.598;2022-07-03T04:55:56;7.60;;;4.63;;
52186;SDS011;38161;53.020;6.598;2022-07-03T04:58:21;6.38;;;4.10;;
52186;SDS011;38161;53.020;6.598;2022-07-03T05:00:47;4.57;;;4.15;;
52186;SDS011;38161;53.020;6.598;2022-07-03T05:03:13;5.38;;;4.28;;
52186;SDS011;38161;53.020;6.598;2022-07-03T05:05:39;5.47;;;4.10;;
52186;SDS011;38161;53.020;6.598;2022-07-03T05:08:05;5.72;;;4.13;;
52186;SDS011;38161;53.020;6.598;2022-07-03T05:10:31;6.53;;;4.22;;
52186;SDS011;38161;53.020;6.598;2022-07-03T05:12:57;6.30;;;4.55;;
52186;SDS011;38161;53.020;6.598;2022-07-03T05:15:22;8.13;;;4.97;;
52186;SDS011;38161;53.020;6.598;2022-07-03T05:17:51;6.30;;;4.38;;
52186;SDS011;38161;53.020;6.598;2022-07-03T05:20:17;9.32;;;4.05;;
52186;SDS011;38161;53.020;6.598;2022-07-03T05:22:58;5.38;;;4.40;;
52186;SDS011;38161;53.020;6.598;2022-07-03T05:25:26;8.95;;;4.88;;
52186;SDS011;38161;53.020;6.598;2022-07-03T05:27:53;7.13;;;5.40;;
52186;SDS011;38161;53.020;6.598;2022-07-03T05:30:19;7.90;;;5.35;;
52186;SDS011;38161;53.020;6.598;2022-07-03T05:32:46;6.35;;;5.10;;
52186;SDS011;38161;53.020;6.598;2022-07-03T05:35:12;6.47;;;5.30;;
52186;SDS011;38161;53.020;6.598;2022-07-03T05:37:37;9.07;;;4.57;;
52186;SDS011;38161;53.020;6.598;2022-07-03T05:40:03;6.13;;;5.03;;
52186;SDS011;38161;53.020;6.598;2022-07-03T05:42:30;8.60;;;5.28;;
52186;SDS011;38161;53.020;6.598;2022-07-03T05:44:55;5.95;;;5.00;;
52186;SDS011;38161;53.020;6.598;2022-07-03T05:47:21;5.47;;;4.55;;
52186;SDS011;38161;53.020;6.598;2022-07-03T05:49:47;8.00;;;4.70;;
52186;SDS011;38161;53.020;6.598;2022-07-03T05:52:13;6.10;;;4.40;;
52186;SDS011;38161;53.020;6.598;2022-07-03T05:54:39;6.35;;;4.70;;
52186;SDS011;38161;53.020;6.598;2022-07-03T05:57:05;5.35;;;3.53;;
52186;SDS011;38161;53.020;6.598;2022-07-03T05:59:30;5.00;;;2.92;;
52186;SDS011;38161;53.020;6.598;2022-07-03T06:01:56;7.15;;;2.90;;
52186;SDS011;38161;53.020;6.598;2022-07-03T06:04:22;5.78;;;2.75;;
52186;SDS011;38161;53.020;6.598;2022-07-03T06:06:48;4.30;;;2.40;;
52186;SDS011;38161;53.020;6.598;2022-07-03T06:09:13;3.65;;;1.88;;
52186;SDS011;38161;53.020;6.598;2022-07-03T06:11:39;3.80;;;2.03;;
52186;SDS011;38161;53.020;6.598;2022-07-03T06:14:05;5.88;;;2.47;;
52186;SDS011;38161;53.020;6.598;2022-07-03T06:16:31;3.50;;;2.30;;
52186;SDS011;38161;53.020;6.598;2022-07-03T06:18:57;5.93;;;2.28;;
52186;SDS011;38161;53.020;6.598;2022-07-03T06:21:23;6.28;;;2.17;;
52186;SDS011;38161;53.020;6.598;2022-07-03T06:23:49;3.90;;;2.00;;
52186;SDS011;38161;53.020;6.598;2022-07-03T06:26:14;3.88;;;2.13;;
52186;SDS011;38161;53.020;6.598;2022-07-03T06:28:40;5.07;;;1.98;;
52186;SDS011;38161;53.020;6.598;2022-07-03T06:31:06;3.78;;;2.05;;
52186;SDS011;38161;53.020;6.598;2022-07-03T06:33:32;5.18;;;1.77;;
52186;SDS011;38161;53.020;6.598;2022-07-03T06:35:58;7.28;;;2.22;;
52186;SDS011;38161;53.020;6.598;2022-07-03T06:38:24;3.17;;;1.63;;
52186;SDS011;38161;53.020;6.598;2022-07-03T06:40:53;2.70;;;2.03;;
52186;SDS011;38161;53.020;6.598;2022-07-03T06:43:19;4.40;;;2.08;;
52186;SDS011;38161;53.020;6.598;2022-07-03T06:45:44;4.97;;;2.08;;
52186;SDS011;38161;53.020;6.598;2022-07-03T06:48:10;4.80;;;1.92;;
52186;SDS011;38161;53.020;6.598;2022-07-03T06:50:36;3.28;;;2.00;;
52186;SDS011;38161;53.020;6.598;2022-07-03T06:53:02;4.13;;;2.40;;
52186;SDS011;38161;53.020;6.598;2022-07-03T06:55:27;5.03;;;2.72;;
52186;SDS011;38161;53.020;6.598;2022-07-03T06:57:53;4.70;;;2.10;;
52186;SDS011;38161;53.020;6.598;2022-07-03T07:00:19;4.65;;;2.72;;
52186;SDS011;38161;53.020;6.598;2022-07-03T07:02:45;3.35;;;1.80;;
52186;SDS011;38161;53.020;6.598;2022-07-03T07:05:11;2.97;;;1.83;;
52186;SDS011;38161;53.020;6.598;2022-07-03T07:07:36;3.58;;;1.80;;
52186;SDS011;38161;53.020;6.598;2022-07-03T07:10:02;2.95;;;1.75;;
52186;SDS011;38161;53.020;6.598;2022-07-03T07:12:28;3.55;;;1.70;;
52186;SDS011;38161;53.020;6.598;2022-07-03T07:14:54;2.65;;;1.40;;
52186;SDS011;38161;53.020;6.598;2022-07-03T07:17:20;3.28;;;1.60;;
52186;SDS011;38161;53.020;6.598;2022-07-03T07:19:46;2.97;;;1.40;;
52186;SDS011;38161;53.020;6.598;2022-07-03T07:22:11;2.85;;;1.80;;
52186;SDS011;38161;53.020;6.598;2022-07-03T07:24:37;4.53;;;1.80;;
52186;SDS011;38161;53.020;6.598;2022-07-03T07:27:03;3.65;;;1.83;;
52186;SDS011;38161;53.020;6.598;2022-07-03T07:29:29;3.75;;;1.67;;
52186;SDS011;38161;53.020;6.598;2022-07-03T07:31:54;3.92;;;1.60;;
52186;SDS011;38161;53.020;6.598;2022-07-03T07:34:20;7.72;;;1.90;;
52186;SDS011;38161;53.020;6.598;2022-07-03T07:36:46;3.55;;;1.52;;
52186;SDS011;38161;53.020;6.598;2022-07-03T07:39:12;3.28;;;1.77;;
52186;SDS011;38161;53.020;6.598;2022-07-03T07:41:38;5.85;;;1.70;;
52186;SDS011;38161;53.020;6.598;2022-07-03T07:44:03;5.13;;;2.10;;
52186;SDS011;38161;53.020;6.598;2022-07-03T07:46:29;3.10;;;1.38;;
52186;SDS011;38161;53.020;6.598;2022-07-03T07:48:56;4.25;;;1.70;;
52186;SDS011;38161;53.020;6.598;2022-07-03T07:51:22;3.55;;;1.98;;
52186;SDS011;38161;53.020;6.598;2022-07-03T07:53:47;3.78;;;1.70;;
52186;SDS011;38161;53.020;6.598;2022-07-03T07:56:15;3.15;;;1.70;;
52186;SDS011;38161;53.020;6.598;2022-07-03T07:58:41;4.00;;;1.65;;
52186;SDS011;38161;53.020;6.598;2022-07-03T08:01:07;4.35;;;1.63;;
52186;SDS011;38161;53.020;6.598;2022-07-03T08:03:51;4.57;;;1.70;;
52186;SDS011;38161;53.020;6.598;2022-07-03T08:06:35;3.30;;;1.70;;
52186;SDS011;38161;53.020;6.598;2022-07-03T08:09:01;3.90;;;1.70;;
52186;SDS011;38161;53.020;6.598;2022-07-03T08:11:27;5.35;;;1.40;;
52186;SDS011;38161;53.020;6.598;2022-07-03T08:13:53;4.03;;;1.45;;
52186;SDS011;38161;53.020;6.598;2022-07-03T08:16:19;2.35;;;1.20;;
52186;SDS011;38161;53.020;6.598;2022-07-03T08:18:44;3.53;;;1.65;;
52186;SDS011;38161;53.020;6.598;2022-07-03T08:21:10;2.35;;;1.40;;
52186;SDS011;38161;53.020;6.598;2022-07-03T08:23:36;3.88;;;1.67;;
52186;SDS011;38161;53.020;6.598;2022-07-03T08:26:02;2.85;;;1.50;;
52186;SDS011;38161;53.020;6.598;2022-07-03T08:28:28;2.30;;;1.30;;
52186;SDS011;38161;53.020;6.598;2022-07-03T08:30:54;2.42;;;1.20;;
52186;SDS011;38161;53.020;6.598;2022-07-03T08:33:19;3.15;;;1.20;;
52186;SDS011;38161;53.020;6.598;2022-07-03T08:35:45;2.25;;;1.17;;
52186;SDS011;38161;53.020;6.598;2022-07-03T08:38:11;3.95;;;1.27;;
52186;SDS011;38161;53.020;6.598;2022-07-03T08:40:37;4.97;;;1.33;;
52186;SDS011;38161;53.020;6.598;2022-07-03T08:43:03;5.40;;;1.40;;
52186;SDS011;38161;53.020;6.598;2022-07-03T08:47:58;3.00;;;1.23;;
52186;SDS011;38161;53.020;6.598;2022-07-03T08:50:24;2.45;;;1.30;;
52186;SDS011;38161;53.020;6.598;2022-07-03T08:55:17;3.72;;;1.17;;
52186;SDS011;38161;53.020;6.598;2022-07-03T08:57:44;1.40;;;0.93;;
52186;SDS011;38161;53.020;6.598;2022-07-03T09:00:13;4.10;;;1.00;;
52186;SDS011;38161;53.020;6.598;2022-07-03T09:02:40;3.85;;;1.05;;
52186;SDS011;38161;53.020;6.598;2022-07-03T09:05:09;3.35;;;0.85;;
52186;SDS011;38161;53.020;6.598;2022-07-03T09:07:38;1.45;;;0.70;;
52186;SDS011;38161;53.020;6.598;2022-07-03T09:10:06;4.10;;;0.80;;
52186;SDS011;38161;53.020;6.598;2022-07-03T09:12:34;3.65;;;1.10;;
52186;SDS011;38161;53.020;6.598;2022-07-03T09:15:01;2.10;;;0.90;;
52186;SDS011;38161;53.020;6.598;2022-07-03T09:17:28;2.20;;;1.00;;
52186;SDS011;38161;53.020;6.598;2022-07-03T09:19:54;3.75;;;1.10;;
52186;SDS011;38161;53.020;6.598;2022-07-03T09:24:54;3.40;;;1.30;;
52186;SDS011;38161;53.020;6.598;2022-07-03T09:27:28;3.78;;;0.98;;
52186;SDS011;38161;53.020;6.598;2022-07-03T09:29:58;2.85;;;0.95;;
52186;SDS011;38161;53.020;6.598;2022-07-03T09:32:25;3.85;;;1.00;;
52186;SDS011;38161;53.020;6.598;2022-07-03T09:37:55;1.20;;;0.70;;
52186;SDS011;38161;53.020;6.598;2022-07-03T09:40:24;2.97;;;0.80;;
52186;SDS011;38161;53.020;6.598;2022-07-03T09:43:01;2.38;;;0.80;;
52186;SDS011;38161;53.020;6.598;2022-07-03T09:48:23;1.23;;;0.75;;
52186;SDS011;38161;53.020;6.598;2022-07-03T09:56:36;1.42;;;0.70;;
52186;SDS011;38161;53.020;6.598;2022-07-03T10:01:35;1.58;;;0.80;;
52186;SDS011;38161;53.020;6.598;2022-07-03T10:04:35;1.42;;;0.80;;
52186;SDS011;38161;53.020;6.598;2022-07-03T10:06:57;1.38;;;0.63;;
52186;SDS011;38161;53.020;6.598;2022-07-03T10:11:51;3.03;;;0.88;;
52186;SDS011;38161;53.020;6.598;2022-07-03T10:14:20;1.95;;;1.00;;
52186;SDS011;38161;53.020;6.598;2022-07-03T10:16:47;0.80;;;0.60;;
52186;SDS011;38161;53.020;6.598;2022-07-03T10:19:17;1.50;;;0.68;;
52186;SDS011;38161;53.020;6.598;2022-07-03T10:21:52;2.53;;;0.73;;
52186;SDS011;38161;53.020;6.598;2022-07-03T10:24:22;5.32;;;1.25;;
52186;SDS011;38161;53.020;6.598;2022-07-03T10:26:50;0.63;;;0.50;;
52186;SDS011;38161;53.020;6.598;2022-07-03T10:29:18;1.42;;;0.77;;
52186;SDS011;38161;53.020;6.598;2022-07-03T10:31:46;1.52;;;0.80;;
52186;SDS011;38161;53.020;6.598;2022-07-03T10:34:15;2.28;;;0.90;;
52186;SDS011;38161;53.020;6.598;2022-07-03T10:36:58;3.55;;;1.23;;
52186;SDS011;38161;53.020;6.598;2022-07-03T10:39:29;1.55;;;1.00;;
52186;SDS011;38161;53.020;6.598;2022-07-03T10:41:56;3.53;;;1.27;;
52186;SDS011;38161;53.020;6.598;2022-07-03T10:50:02;2.42;;;0.90;;
52186;SDS011;38161;53.020;6.598;2022-07-03T10:52:31;1.60;;;0.70;;
52186;SDS011;38161;53.020;6.598;2022-07-03T10:54:57;1.40;;;0.85;;
52186;SDS011;38161;53.020;6.598;2022-07-03T10:57:24;2.17;;;0.95;;
52186;SDS011;38161;53.020;6.598;2022-07-03T11:02:38;3.40;;;0.90;;
52186;SDS011;38161;53.020;6.598;2022-07-03T11:05:03;4.00;;;0.85;;
52186;SDS011;38161;53.020;6.598;2022-07-03T11:18:17;2.88;;;1.05;;
52186;SDS011;38161;53.020;6.598;2022-07-03T11:25:41;2.45;;;1.00;;
52186;SDS011;38161;53.020;6.598;2022-07-03T11:36:09;2.28;;;1.00;;
52186;SDS011;38161;53.020;6.598;2022-07-03T11:38:36;1.67;;;1.10;;
52186;SDS011;38161;53.020;6.598;2022-07-03T11:41:05;2.25;;;1.00;;
52186;SDS011;38161;53.020;6.598;2022-07-03T11:43:33;3.10;;;1.30;;
52186;SDS011;38161;53.020;6.598;2022-07-03T11:45:59;3.33;;;1.13;;
52186;SDS011;38161;53.020;6.598;2022-07-03T11:48:26;2.13;;;1.20;;
52186;SDS011;38161;53.020;6.598;2022-07-03T11:50:57;2.45;;;1.10;;
52186;SDS011;38161;53.020;6.598;2022-07-03T11:53:28;2.45;;;1.23;;
52186;SDS011;38161;53.020;6.598;2022-07-03T11:56:11;2.67;;;1.17;;
52186;SDS011;38161;53.020;6.598;2022-07-03T11:58:44;2.60;;;1.30;;
52186;SDS011;38161;53.020;6.598;2022-07-03T12:03:53;3.92;;;1.50;;
52186;SDS011;38161;53.020;6.598;2022-07-03T12:06:26;5.20;;;1.50;;
52186;SDS011;38161;53.020;6.598;2022-07-03T12:08:59;4.45;;;1.77;;
52186;SDS011;38161;53.020;6.598;2022-07-03T12:11:25;3.72;;;1.35;;
52186;SDS011;38161;53.020;6.598;2022-07-03T12:13:50;1.95;;;1.17;;
52186;SDS011;38161;53.020;6.598;2022-07-03T12:16:18;7.60;;;1.55;;
52186;SDS011;38161;53.020;6.598;2022-07-03T12:18:51;3.70;;;1.45;;
52186;SDS011;38161;53.020;6.598;2022-07-03T12:21:20;3.33;;;1.20;;
52186;SDS011;38161;53.020;6.598;2022-07-03T12:23:51;3.58;;;1.20;;
52186;SDS011;38161;53.020;6.598;2022-07-03T12:26:34;3.08;;;1.30;;
52186;SDS011;38161;53.020;6.598;2022-07-03T12:29:02;2.53;;;1.23;;
52186;SDS011;38161;53.020;6.598;2022-07-03T12:31:30;2.00;;;0.90;;
52186;SDS011;38161;53.020;6.598;2022-07-03T12:33:57;1.50;;;0.80;;
52186;SDS011;38161;53.020;6.598;2022-07-03T12:36:23;1.92;;;1.08;;
52186;SDS011;38161;53.020;6.598;2022-07-03T12:38:53;2.78;;;0.75;;
52186;SDS011;38161;53.020;6.598;2022-07-03T12:41:20;2.78;;;1.13;;
52186;SDS011;38161;53.020;6.598;2022-07-03T12:43:48;2.45;;;0.95;;
52186;SDS011;38161;53.020;6.598;2022-07-03T12:46:23;2.35;;;1.00;;
52186;SDS011;38161;53.020;6.598;2022-07-03T12:48:52;2.75;;;0.85;;
52186;SDS011;38161;53.020;6.598;2022-07-03T12:54:11;5.00;;;1.25;;
52186;SDS011;38161;53.020;6.598;2022-07-03T12:57:01;2.58;;;1.45;;
52186;SDS011;38161;53.020;6.598;2022-07-03T13:02:45;3.70;;;1.10;;
52186;SDS011;38161;53.020;6.598;2022-07-03T13:07:40;2.38;;;1.02;;
52186;SDS011;38161;53.020;6.598;2022-07-03T13:10:07;2.53;;;0.95;;
52186;SDS011;38161;53.020;6.598;2022-07-03T13:12:33;1.00;;;0.70;;
52186;SDS011;38161;53.020;6.598;2022-07-03T13:15:02;5.18;;;1.10;;
52186;SDS011;38161;53.020;6.598;2022-07-03T13:20:22;4.22;;;1.05;;
52186;SDS011;38161;53.020;6.598;2022-07-03T13:22:55;3.43;;;1.17;;
52186;SDS011;38161;53.020;6.598;2022-07-03T13:25:22;3.30;;;0.90;;
52186;SDS011;38161;53.020;6.598;2022-07-03T13:27:48;1.77;;;0.88;;
52186;SDS011;38161;53.020;6.598;2022-07-03T13:30:15;2.55;;;0.90;;
52186;SDS011;38161;53.020;6.598;2022-07-03T13:32:42;2.78;;;0.95;;
52186;SDS011;38161;53.020;6.598;2022-07-03T13:37:34;3.40;;;1.00;;
52186;SDS011;38161;53.020;6.598;2022-07-03T13:40:00;2.00;;;0.80;;
52186;SDS011;38161;53.020;6.598;2022-07-03T13:42:27;2.13;;;0.80;;
52186;SDS011;38161;53.020;6.598;2022-07-03T13:44:53;1.30;;;0.90;;
52186;SDS011;38161;53.020;6.598;2022-07-03T13:47:18;3.97;;;1.23;;
52186;SDS011;38161;53.020;6.598;2022-07-03T13:49:44;1.65;;;0.93;;
52186;SDS011;38161;53.020;6.598;2022-07-03T13:54:36;1.65;;;1.00;;
52186;SDS011;38161;53.020;6.598;2022-07-03T13:57:02;1.92;;;1.00;;
52186;SDS011;38161;53.020;6.598;2022-07-03T13:59:28;4.05;;;1.40;;
52186;SDS011;38161;53.020;6.598;2022-07-03T14:01:56;4.10;;;1.20;;
52186;SDS011;38161;53.020;6.598;2022-07-03T14:04:22;3.15;;;1.20;;
52186;SDS011;38161;53.020;6.598;2022-07-03T14:06:48;2.30;;;1.50;;
52186;SDS011;38161;53.020;6.598;2022-07-03T14:09:14;2.45;;;1.27;;
52186;SDS011;38161;53.020;6.598;2022-07-03T14:11:40;3.65;;;1.60;;
52186;SDS011;38161;53.020;6.598;2022-07-03T14:14:05;5.50;;;2.15;;
52186;SDS011;38161;53.020;6.598;2022-07-03T14:16:31;5.50;;;1.98;;
52186;SDS011;38161;53.020;6.598;2022-07-03T14:18:57;5.70;;;1.40;;
52186;SDS011;38161;53.020;6.598;2022-07-03T14:21:23;3.92;;;1.73;;
52186;SDS011;38161;53.020;6.598;2022-07-03T14:23:49;4.00;;;1.50;;
52186;SDS011;38161;53.020;6.598;2022-07-03T14:26:14;5.13;;;1.27;;
52186;SDS011;38161;53.020;6.598;2022-07-03T14:28:40;2.33;;;1.23;;
52186;SDS011;38161;53.020;6.598;2022-07-03T14:31:24;4.35;;;1.58;;
52186;SDS011;38161;53.020;6.598;2022-07-03T14:33:50;2.40;;;1.27;;
52186;SDS011;38161;53.020;6.598;2022-07-03T14:36:17;2.33;;;1.45;;
52186;SDS011;38161;53.020;6.598;2022-07-03T14:38:43;3.92;;;1.60;;
52186;SDS011;38161;53.020;6.598;2022-07-03T14:41:09;4.25;;;1.40;;
52186;SDS011;38161;53.020;6.598;2022-07-03T14:43:35;2.53;;;1.60;;
52186;SDS011;38161;53.020;6.598;2022-07-03T14:46:01;2.47;;;1.55;;
52186;SDS011;38161;53.020;6.598;2022-07-03T14:48:26;2.08;;;1.35;;
52186;SDS011;38161;53.020;6.598;2022-07-03T14:50:52;2.50;;;1.50;;
52186;SDS011;38161;53.020;6.598;2022-07-03T14:53:18;2.97;;;1.50;;
52186;SDS011;38161;53.020;6.598;2022-07-03T14:55:45;2.35;;;1.60;;
52186;SDS011;38161;53.020;6.598;2022-07-03T14:58:21;5.80;;;1.92;;
52186;SDS011;38161;53.020;6.598;2022-07-03T15:00:52;3.30;;;1.70;;
52186;SDS011;38161;53.020;6.598;2022-07-03T15:03:33;3.65;;;1.75;;
52186;SDS011;38161;53.020;6.598;2022-07-03T15:06:00;2.67;;;1.63;;
52186;SDS011;38161;53.020;6.598;2022-07-03T15:11:02;3.17;;;2.10;;
52186;SDS011;38161;53.020;6.598;2022-07-03T15:13:57;3.35;;;2.10;;
52186;SDS011;38161;53.020;6.598;2022-07-03T15:16:26;3.45;;;1.90;;
52186;SDS011;38161;53.020;6.598;2022-07-03T15:18:57;2.58;;;1.55;;
52186;SDS011;38161;53.020;6.598;2022-07-03T15:21:24;3.10;;;1.77;;
52186;SDS011;38161;53.020;6.598;2022-07-03T15:24:00;3.40;;;1.73;;
52186;SDS011;38161;53.020;6.598;2022-07-03T15:26:30;2.47;;;1.77;;
52186;SDS011;38161;53.020;6.598;2022-07-03T15:28:58;2.75;;;1.63;;
52186;SDS011;38161;53.020;6.598;2022-07-03T15:31:26;2.97;;;1.58;;
52186;SDS011;38161;53.020;6.598;2022-07-03T15:33:53;2.63;;;1.45;;
52186;SDS011;38161;53.020;6.598;2022-07-03T15:36:20;2.53;;;1.60;;
52186;SDS011;38161;53.020;6.598;2022-07-03T15:39:04;2.25;;;1.40;;
52186;SDS011;38161;53.020;6.598;2022-07-03T15:41:34;3.75;;;1.50;;
52186;SDS011;38161;53.020;6.598;2022-07-03T15:44:29;2.58;;;1.60;;
52186;SDS011;38161;53.020;6.598;2022-07-03T15:47:10;4.35;;;1.90;;
52186;SDS011;38161;53.020;6.598;2022-07-03T15:49:56;4.95;;;1.80;;
52186;SDS011;38161;53.020;6.598;2022-07-03T15:52:24;3.15;;;2.00;;
52186;SDS011;38161;53.020;6.598;2022-07-03T15:57:37;3.70;;;2.00;;
52186;SDS011;38161;53.020;6.598;2022-07-03T16:00:09;3.45;;;2.10;;
52186;SDS011;38161;53.020;6.598;2022-07-03T16:05:11;5.45;;;3.50;;
52186;SDS011;38161;53.020;6.598;2022-07-03T16:07:40;5.35;;;3.25;;
52186;SDS011;38161;53.020;6.598;2022-07-03T16:10:09;5.32;;;3.10;;
52186;SDS011;38161;53.020;6.598;2022-07-03T16:12:37;4.47;;;2.78;;
52186;SDS011;38161;53.020;6.598;2022-07-03T16:15:07;3.88;;;2.33;;
52186;SDS011;38161;53.020;6.598;2022-07-03T16:17:34;3.55;;;2.60;;
52186;SDS011;38161;53.020;6.598;2022-07-03T16:20:01;4.13;;;2.40;;
52186;SDS011;38161;53.020;6.598;2022-07-03T16:22:30;4.65;;;2.50;;
52186;SDS011;38161;53.020;6.598;2022-07-03T16:24:59;4.65;;;2.65;;
52186;SDS011;38161;53.020;6.598;2022-07-03T16:27:27;5.13;;;2.80;;
52186;SDS011;38161;53.020;6.598;2022-07-03T16:29:53;3.95;;;2.63;;
52186;SDS011;38161;53.020;6.598;2022-07-03T16:32:20;4.63;;;2.30;;
52186;SDS011;38161;53.020;6.598;2022-07-03T16:35:07;4.00;;;2.30;;
52186;SDS011;38161;53.020;6.598;2022-07-03T16:37:37;4.47;;;2.42;;
52186;SDS011;38161;53.020;6.598;2022-07-03T16:40:14;4.50;;;2.55;;
52186;SDS011;38161;53.020;6.598;2022-07-03T16:42:43;3.38;;;2.00;;
52186;SDS011;38161;53.020;6.598;2022-07-03T16:45:11;3.15;;;2.33;;
52186;SDS011;38161;53.020;6.598;2022-07-03T16:47:39;5.80;;;2.75;;
52186;SDS011;38161;53.020;6.598;2022-07-03T16:50:14;3.47;;;2.25;;
52186;SDS011;38161;53.020;6.598;2022-07-03T16:52:46;4.25;;;2.38;;
52186;SDS011;38161;53.020;6.598;2022-07-03T16:55:13;4.22;;;2.25;;
52186;SDS011;38161;53.020;6.598;2022-07-03T16:57:47;3.28;;;1.90;;
52186;SDS011;38161;53.020;6.598;2022-07-03T17:00:21;4.68;;;1.90;;